Time;durP1;ratioP1;P1;durP2;ratioP2;P2;SDS_P1;SDS_P2;PMS_P1;PMS_P2;Temp;Humidity;BMP_temperature;BMP_pressure;BME280_temperature;BME280_humidity;BME280_pressure;Samples;Min_cycle;Max_cycle;Signal;HPM_P1;HPM_P2
2023/01/28 00:02:14;;;;;;;23.87;15.80;;;;;;;41.85;38.51;100911.44;6154971;23;20533;-83
2023/01/28 00:04:40;;;;;;;23.47;14.40;;;;;;;41.92;38.45;100910.09;6130583;23;20630;-82
2023/01/28 00:07:07;;;;;;;20.43;14.03;;;;;;;41.92;38.60;100904.66;6129736;23;20584;-87
2023/01/28 00:09:34;;;;;;;24.10;15.77;;;;;;;41.92;38.30;100896.47;6154938;23;20192;-90
2023/01/28 00:12:00;;;;;;;26.33;16.30;;;;;;;41.86;38.27;100893.16;6131349;23;20385;-89
2023/01/28 00:14:41;;;;;;;19.80;15.50;;;;;;;42.02;37.82;100893.34;6155868;23;20381;-93
2023/01/28 00:17:10;;;;;;;28.43;15.37;;;;;;;41.96;38.03;100889.22;6156185;23;20400;-88
2023/01/28 00:19:43;;;;;;;21.53;12.97;;;;;;;41.98;37.64;100886.97;6155830;23;20412;-92
2023/01/28 00:22:15;;;;;;;27.90;17.87;;;;;;;41.93;37.55;100868.91;6131271;23;20468;-84
2023/01/28 00:24:49;;;;;;;25.13;15.30;;;;;;;42.00;37.62;100871.88;6155832;23;20385;-87
2023/01/28 00:27:48;;;;;;;26.67;15.07;;;;;;;41.95;37.64;100871.31;6155109;23;20431;-86
2023/01/28 00:30:18;;;;;;;32.87;17.37;;;;;;;41.99;37.38;100861.31;6128512;23;20389;-86
2023/01/28 00:32:45;;;;;;;26.77;16.37;;;;;;;41.99;37.90;100866.75;6151574;23;20380;-85
2023/01/28 00:35:12;;;;;;;24.57;15.60;;;;;;;41.90;37.50;100864.13;6130392;23;20470;-84
2023/01/28 00:37:38;;;;;;;22.93;16.43;;;;;;;41.87;37.76;100853.91;6154538;23;20963;-82
2023/01/28 00:40:10;;;;;;;24.30;14.07;;;;;;;41.83;38.05;100847.53;6130574;23;20425;-87
2023/01/28 00:42:42;;;;;;;35.67;16.10;;;;;;;41.66;38.25;100842.19;6154724;23;20419;-87
2023/01/28 00:45:08;;;;;;;18.90;16.00;;;;;;;41.60;38.31;100847.03;6130765;23;20393;-85
2023/01/28 00:47:34;;;;;;;20.83;13.67;;;;;;;41.72;38.21;100835.41;6129806;23;20432;-84
2023/01/28 00:50:04;;;;;;;19.60;14.87;;;;;;;41.40;39.03;100820.59;6130513;23;20880;-86
2023/01/28 00:52:43;;;;;;;34.10;15.60;;;;;;;41.61;38.48;100822.19;6152689;23;20397;-87
2023/01/28 00:55:12;;;;;;;25.73;15.53;;;;;;;41.69;37.95;100819.75;6126978;23;20408;-87
2023/01/28 00:57:42;;;;;;;21.27;13.87;;;;;;;41.56;38.57;100818.88;6155754;23;20400;-87
2023/01/28 01:00:19;;;;;;;19.93;14.33;;;;;;;41.17;38.83;100812.72;6116745;23;20469;-86
2023/01/28 01:02:49;;;;;;;22.80;13.77;;;;;;;41.30;38.63;100800.75;6154670;23;20381;-87
2023/01/28 01:05:41;;;;;;;21.30;14.00;;;;;;;41.26;38.55;100799.84;6155252;23;20384;-84
2023/01/28 01:08:13;;;;;;;21.30;13.80;;;;;;;41.27;38.88;100793.28;6130156;23;20440;-86
2023/01/28 01:10:53;;;;;;;26.33;14.30;;;;;;;41.37;38.28;100804.91;6154321;23;20401;-87
2023/01/28 01:13:35;;;;;;;27.13;15.70;;;;;;;41.46;38.39;100808.38;6149719;23;20393;-86
2023/01/28 01:16:07;;;;;;;20.83;13.63;;;;;;;41.41;38.63;100790.31;6154930;23;20416;-82
2023/01/28 01:18:41;;;;;;;27.23;14.70;;;;;;;41.45;38.46;100798.63;6155695;23;20373;-87
2023/01/28 01:21:24;;;;;;;40.37;16.07;;;;;;;41.52;37.86;100796.16;6153401;23;20449;-88
2023/01/28 01:23:54;;;;;;;26.17;13.10;;;;;;;41.33;38.04;100788.47;6127322;23;20444;-87
2023/01/28 01:26:27;;;;;;;20.40;14.13;;;;;;;41.38;37.90;100788.28;6129777;23;20725;-86
2023/01/28 01:28:56;;;;;;;27.43;15.67;;;;;;;41.59;37.82;100794.50;6130330;23;20949;-86
2023/01/28 01:31:24;;;;;;;24.97;14.80;;;;;;;41.33;37.85;100791.97;6120906;23;20382;-86
2023/01/28 01:33:52;;;;;;;27.67;14.00;;;;;;;41.48;38.15;100798.75;6152903;23;20381;-87
2023/01/28 01:36:22;;;;;;;26.70;15.50;;;;;;;41.57;37.96;100799.47;6155094;23;20378;-85
2023/01/28 01:38:58;;;;;;;19.67;14.07;;;;;;;41.69;37.58;100787.06;6129847;23;20393;-91
2023/01/28 01:41:33;;;;;;;21.97;13.80;;;;;;;41.66;37.70;100783.06;6130059;23;20395;-91
2023/01/28 01:44:01;;;;;;;23.03;14.00;;;;;;;41.70;37.83;100792.16;6154276;23;20447;-84
2023/01/28 01:46:44;;;;;;;38.00;17.60;;;;;;;41.83;37.83;100790.31;6129401;23;20414;-89
2023/01/28 01:49:25;;;;;;;21.73;13.63;;;;;;;41.67;38.14;100792.03;6129923;23;20428;-84
2023/01/28 01:52:06;;;;;;;19.20;16.20;;;;;;;41.76;37.88;100795.50;6129091;23;20404;-82
2023/01/28 01:54:43;;;;;;;24.57;13.10;;;;;;;41.86;37.84;100804.03;6154509;23;20389;-85
2023/01/28 01:57:30;;;;;;;31.57;14.23;;;;;;;41.80;37.91;100791.75;6154327;23;20385;-87
2023/01/28 02:00:07;;;;;;;33.23;17.43;;;;;;;41.86;37.74;100797.78;6147652;23;20409;-87
2023/01/28 02:02:52;;;;;;;21.27;14.73;;;;;;;41.60;38.14;100784.38;6152984;23;20385;-87
2023/01/28 02:05:22;;;;;;;24.83;15.77;;;;;;;41.79;37.87;100786.66;6129195;23;20501;-87
2023/01/28 02:10:53;;;;;;;33.20;15.43;;;;;;;41.84;37.77;100783.72;6126420;23;20760;-86
2023/01/28 02:13:35;;;;;;;29.80;16.13;;;;;;;41.76;38.03;100777.22;6123697;23;20382;-86
2023/01/28 02:16:16;;;;;;;20.93;13.70;;;;;;;41.76;37.98;100774.50;6126346;23;20453;-87
2023/01/28 02:18:43;;;;;;;19.57;14.63;;;;;;;41.81;37.73;100776.25;6097322;23;20881;-86
2023/01/28 02:21:50;;;;;;;24.80;16.63;;;;;;;41.67;38.18;100778.41;6099538;23;20424;-87
2023/01/28 02:25:03;;;;;;;28.53;15.67;;;;;;;41.77;37.80;100778.81;6124652;23;20394;-87
2023/01/28 02:28:15;;;;;;;23.63;15.60;;;;;;;41.69;38.22;100793.28;6125487;23;20441;-86
2023/01/28 02:31:13;;;;;;;22.83;14.37;;;;;;;41.51;38.41;100780.97;6099884;23;20378;-82
2023/01/28 02:33:54;;;;;;;22.27;16.33;;;;;;;41.66;38.24;100780.34;6070333;23;20389;-89
2023/01/28 02:36:59;;;;;;;21.03;14.50;;;;;;;41.69;38.11;100781.59;6100535;23;20437;-94
2023/01/28 02:39:56;;;;;;;23.53;16.40;;;;;;;41.64;37.92;100770.91;6100618;23;20410;-93
2023/01/28 02:42:31;;;;;;;23.97;14.23;;;;;;;41.67;37.86;100773.75;6120338;23;20893;-93
2023/01/28 02:44:59;;;;;;;25.27;14.20;;;;;;;41.76;37.87;100771.78;6101146;23;20945;-93
2023/01/28 02:50:25;;;;;;;28.57;14.40;;;;;;;41.75;37.16;100775.66;6125922;23;20907;-91
2023/01/28 02:53:42;;;;;;;31.60;15.50;;;;;;;41.49;38.33;100764.94;6124575;23;20382;-90
2023/01/28 02:56:35;;;;;;;30.53;17.07;;;;;;;41.52;37.73;100790.72;6100164;23;20401;-91
2023/01/28 02:59:40;;;;;;;26.80;15.50;;;;;;;41.50;37.82;100769.28;6097786;23;20477;-89
2023/01/28 03:02:37;;;;;;;26.60;17.07;;;;;;;41.53;38.31;100775.97;6083084;23;20382;-86
2023/01/28 03:05:35;;;;;;;21.93;15.10;;;;;;;41.64;38.12;100766.25;6100164;23;20394;-86
2023/01/28 03:39:03;;;;;;;21.17;15.00;;;;;;;41.44;37.89;100775.25;6127222;23;20365;-82
2023/01/28 03:41:29;;;;;;;24.90;14.33;;;;;;;41.52;37.39;100771.66;6101271;23;20397;-85
2023/01/28 03:43:55;;;;;;;25.40;15.20;;;;;;;41.42;37.64;100761.16;6101119;23;20390;-81
2023/01/28 03:46:22;;;;;;;22.93;14.77;;;;;;;41.61;37.19;100772.38;6100831;23;20913;-84
2023/01/28 03:48:48;;;;;;;21.20;15.17;;;;;;;41.72;37.33;100775.47;6101107;23;20488;-82
2023/01/28 03:51:15;;;;;;;26.77;16.43;;;;;;;41.65;37.45;100777.94;6100662;23;20397;-83
2023/01/28 03:53:41;;;;;;;22.67;14.93;;;;;;;41.65;37.54;100780.69;6101278;23;20165;-83
2023/01/28 03:56:07;;;;;;;34.10;17.63;;;;;;;41.74;37.75;100778.66;6101132;23;20394;-83
2023/01/28 03:58:51;;;;;;;25.37;15.07;;;;;;;41.69;37.71;100779.69;6101181;23;20311;-82
2023/01/28 04:01:18;;;;;;;36.10;17.40;;;;;;;41.75;37.56;100786.53;6101064;23;20871;-82
2023/01/28 04:03:44;;;;;;;27.97;16.87;;;;;;;41.53;37.94;100784.13;6100967;23;20477;-82
2023/01/28 04:06:10;;;;;;;25.03;15.13;;;;;;;41.48;37.90;100776.97;6104210;23;20414;-84
2023/01/28 04:08:36;;;;;;;24.70;14.87;;;;;;;41.45;38.12;100787.72;6130297;23;20785;-82
2023/01/28 04:11:14;;;;;;;26.90;15.10;;;;;;;41.61;37.68;100786.78;6130301;23;20451;-82
2023/01/28 04:13:41;;;;;;;25.73;15.77;;;;;;;41.57;37.60;100794.03;6130409;23;20388;-83
2023/01/28 04:16:07;;;;;;;25.00;17.10;;;;;;;41.65;37.59;100797.81;6130377;23;20869;-82
2023/01/28 04:18:34;;;;;;;29.20;14.43;;;;;;;41.57;37.90;100794.03;6129828;23;20389;-82
2023/01/28 04:21:00;;;;;;;29.60;16.27;;;;;;;41.64;37.65;100806.31;6130133;23;20404;-83
2023/01/28 04:23:27;;;;;;;35.40;18.30;;;;;;;41.56;38.01;100799.81;6129605;23;20392;-82
2023/01/28 04:25:52;;;;;;;38.37;16.10;;;;;;;41.66;37.57;100798.59;6130302;23;20412;-82
2023/01/28 04:28:18;;;;;;;28.07;15.33;;;;;;;41.57;37.96;100804.13;6130014;23;20779;-83
2023/01/28 04:30:44;;;;;;;23.23;14.50;;;;;;;41.43;38.17;100806.31;6129897;23;20164;-85
2023/01/28 04:33:10;;;;;;;24.47;15.13;;;;;;;41.43;37.76;100817.19;6130444;23;20163;-86
2023/01/28 04:35:36;;;;;;;32.53;17.43;;;;;;;41.34;37.74;100809.91;6129804;23;20606;-82
2023/01/28 04:38:02;;;;;;;33.37;15.50;;;;;;;41.56;37.62;100810.72;6129807;23;20464;-82
2023/01/28 04:40:28;;;;;;;22.13;14.13;;;;;;;41.57;37.06;100810.38;6129516;23;20163;-82
2023/01/28 04:42:55;;;;;;;27.57;13.90;;;;;;;41.56;37.31;100816.97;6129540;23;20506;-82
2023/01/28 04:45:22;;;;;;;23.93;15.70;;;;;;;41.59;37.52;100818.19;6129707;23;20385;-81
2023/01/28 04:47:48;;;;;;;28.33;15.97;;;;;;;41.60;37.66;100817.06;6156040;23;20463;-82
2023/01/28 04:50:14;;;;;;;30.80;15.80;;;;;;;41.64;37.20;100819.94;6129873;23;20444;-83
2023/01/28 04:52:41;;;;;;;21.70;14.20;;;;;;;41.57;37.28;100824.00;6129774;23;20870;-83
2023/01/28 04:55:07;;;;;;;21.87;15.10;;;;;;;41.65;37.37;100814.16;6129444;23;20726;-83
2023/01/28 04:57:33;;;;;;;23.93;14.57;;;;;;;41.61;37.08;100816.72;6129609;23;20411;-82
2023/01/28 04:59:59;;;;;;;20.57;15.00;;;;;;;41.50;37.09;100814.78;6129827;23;20385;-82
2023/01/28 05:02:25;;;;;;;28.77;17.80;;;;;;;41.52;37.69;100816.03;6129386;23;20522;-86
2023/01/28 05:04:51;;;;;;;26.63;14.77;;;;;;;41.53;37.47;100805.91;6129824;23;20442;-82
2023/01/28 05:07:17;;;;;;;24.60;13.83;;;;;;;41.45;37.71;100823.94;6128737;23;20790;-84
2023/01/28 05:09:44;;;;;;;23.33;14.33;;;;;;;41.61;37.82;100818.66;6129482;23;20460;-86
2023/01/28 05:12:19;;;;;;;24.93;15.90;;;;;;;41.37;37.41;100819.31;6126861;23;20728;-83
2023/01/28 05:14:47;;;;;;;30.90;17.93;;;;;;;41.45;37.89;100825.84;6130262;23;20447;-86
2023/01/28 05:17:20;;;;;;;38.03;17.40;;;;;;;41.38;38.08;100829.09;6128751;23;20455;-87
2023/01/28 05:19:47;;;;;;;28.37;13.93;;;;;;;41.42;37.48;100834.66;6149601;23;20388;-86
2023/01/28 05:22:21;;;;;;;19.30;13.83;;;;;;;41.42;37.76;100849.06;6151657;23;20736;-87
2023/01/28 05:24:47;;;;;;;24.83;15.10;;;;;;;41.61;37.36;100854.84;6121727;23;20381;-86
2023/01/28 05:27:15;;;;;;;30.83;17.87;;;;;;;41.33;37.85;100842.91;6151334;23;20429;-86
2023/01/28 05:29:43;;;;;;;27.80;15.37;;;;;;;41.38;37.78;100850.09;6155962;23;20377;-87
2023/01/28 05:32:11;;;;;;;25.53;17.87;;;;;;;41.34;37.99;100853.47;6129670;23;20389;-87
2023/01/28 05:34:46;;;;;;;27.77;17.40;;;;;;;41.41;37.82;100857.59;6154916;23;20409;-88
2023/01/28 05:37:16;;;;;;;29.10;15.97;;;;;;;41.38;37.83;100842.72;6152870;23;20377;-87
2023/01/28 05:39:47;;;;;;;21.43;15.50;;;;;;;41.43;37.99;100867.00;6155265;23;20388;-86
2023/01/28 05:42:21;;;;;;;24.53;16.23;;;;;;;41.37;38.29;100854.72;6130305;23;20382;-86
2023/01/28 05:44:49;;;;;;;23.10;16.40;;;;;;;41.42;37.72;100864.63;6129842;23;20413;-86
2023/01/28 05:47:27;;;;;;;27.37;17.33;;;;;;;41.23;37.96;100849.50;6154912;23;20464;-86
2023/01/28 05:49:58;;;;;;;29.63;16.97;;;;;;;41.33;37.91;100856.50;6151087;23;20381;-82
2023/01/28 05:52:24;;;;;;;26.10;16.07;;;;;;;41.36;38.08;100861.28;6153501;23;20389;-82
2023/01/28 05:54:50;;;;;;;21.43;13.30;;;;;;;41.36;38.15;100865.94;6129205;23;20886;-83
2023/01/28 05:57:16;;;;;;;37.83;16.93;;;;;;;41.59;37.75;100869.94;6152974;23;20173;-83
2023/01/28 05:59:42;;;;;;;31.83;18.80;;;;;;;41.54;37.71;100870.13;6153798;23;20452;-82
2023/01/28 06:02:08;;;;;;;28.50;18.57;;;;;;;41.43;38.01;100868.94;6153489;23;20157;-83
2023/01/28 06:04:46;;;;;;;37.97;16.97;;;;;;;41.48;38.13;100879.63;6129883;23;20164;-86
2023/01/28 06:07:12;;;;;;;28.93;16.30;;;;;;;41.39;38.22;100881.63;6127296;23;20449;-82
2023/01/28 06:09:50;;;;;;;25.20;17.70;;;;;;;41.46;37.94;100879.16;6153176;23;20546;-85
2023/01/28 06:12:16;;;;;;;20.70;14.33;;;;;;;41.45;38.16;100874.84;6116918;23;20392;-85
2023/01/28 06:14:54;;;;;;;32.63;18.87;;;;;;;41.38;38.14;100880.03;6129137;23;20385;-87
2023/01/28 06:17:23;;;;;;;24.27;17.67;;;;;;;41.39;37.92;100874.25;6105225;23;20646;-87
2023/01/28 06:19:50;;;;;;;20.80;14.00;;;;;;;41.45;38.05;100880.31;6129634;23;20392;-87
2023/01/28 06:22:18;;;;;;;27.63;14.50;;;;;;;41.50;37.71;100885.56;6130034;23;20405;-88
2023/01/28 06:24:46;;;;;;;29.43;18.60;;;;;;;41.51;38.13;100890.66;6154866;23;20381;-85
2023/01/28 06:27:13;;;;;;;28.30;16.10;;;;;;;41.50;38.20;100899.97;6124866;23;20425;-87
2023/01/28 06:29:39;;;;;;;29.80;15.37;;;;;;;41.39;37.90;100903.41;6128723;23;20916;-82
2023/01/28 06:32:05;;;;;;;21.30;13.47;;;;;;;41.57;37.89;100913.84;6153685;23;20389;-82
2023/01/28 06:34:31;;;;;;;31.97;19.67;;;;;;;41.53;37.69;100917.56;6128767;23;20164;-82
2023/01/28 06:36:58;;;;;;;24.83;18.00;;;;;;;41.44;38.20;100916.84;6128942;23;20409;-83
2023/01/28 06:39:32;;;;;;;23.33;14.50;;;;;;;41.57;37.66;100923.97;6129347;23;20783;-85
2023/01/28 06:42:00;;;;;;;31.50;16.30;;;;;;;41.51;37.51;100911.66;6155944;23;20365;-86
2023/01/28 06:44:37;;;;;;;21.43;16.30;;;;;;;41.64;37.42;100926.94;6154665;23;20385;-87
2023/01/28 06:47:08;;;;;;;29.93;15.70;;;;;;;41.59;37.75;100918.97;6153779;23;20453;-83
2023/01/28 06:49:34;;;;;;;26.13;15.60;;;;;;;41.69;37.62;100931.41;6128016;23;20468;-83
2023/01/28 06:52:00;;;;;;;20.03;13.97;;;;;;;41.69;37.56;100940.38;6128706;23;20385;-83
2023/01/28 06:54:31;;;;;;;22.17;15.37;;;;;;;41.63;37.66;100938.19;6129414;23;20746;-86
2023/01/28 06:57:03;;;;;;;29.53;16.60;;;;;;;41.53;37.66;100936.63;6153560;23;20405;-84
2023/01/28 06:59:31;;;;;;;25.30;15.50;;;;;;;41.70;37.68;100939.25;6155029;23;20390;-83
2023/01/28 07:01:56;;;;;;;25.03;17.00;;;;;;;41.70;37.34;100941.97;6155006;23;20368;-83
2023/01/28 07:04:22;;;;;;;34.53;15.57;;;;;;;41.56;37.60;100941.44;6125791;23;20381;-83
2023/01/28 07:06:51;;;;;;;25.60;14.87;;;;;;;41.54;37.71;100938.22;6127427;23;20209;-84
2023/01/28 07:09:20;;;;;;;28.83;14.97;;;;;;;41.55;37.87;100943.31;6109628;23;20445;-86
2023/01/28 07:11:49;;;;;;;29.47;15.27;;;;;;;41.58;37.73;100939.97;6098586;23;20981;-84
2023/01/28 07:14:15;;;;;;;22.43;16.70;;;;;;;41.51;37.90;100949.78;6099271;23;20383;-88
2023/01/28 10:07:53;;;;;;;25.90;13.57;;;;;;;42.95;34.68;101061.13;6168896;23;20547;-86
2023/01/28 10:10:48;;;;;;;22.50;15.60;;;;;;;42.96;34.41;101076.34;6015036;23;20537;-82
2023/01/28 10:13:45;;;;;;;20.53;14.23;;;;;;;42.94;34.50;101081.38;6010522;23;20397;-90
2023/01/28 10:16:54;;;;;;;24.77;16.10;;;;;;;42.95;34.19;101095.81;6113764;23;20400;-87
2023/01/28 15:05:18;;;;;;;21.53;16.30;;;;;;;44.00;31.71;100642.50;6190976;23;20475;-87
2023/01/28 15:07:59;;;;;;;23.03;15.43;;;;;;;44.15;31.99;100636.25;6184375;23;20939;-88
2023/01/28 15:10:37;;;;;;;25.10;16.60;;;;;;;44.35;31.42;100635.16;6157976;23;20935;-89
2023/01/28 15:13:36;;;;;;;18.10;14.43;;;;;;;44.68;31.19;100647.63;6164705;23;20399;-91
2023/01/28 15:16:34;;;;;;;;;;;;;;;;;;;;;
2023/01/28 15:19:15;;;;;;;18.20;14.60;;;;;;;44.96;30.96;100641.94;6189411;23;20401;-88
2023/01/28 15:21:44;;;;;;;23.80;15.60;;;;;;;44.97;30.60;100633.41;6164771;23;20784;-88
2023/01/28 15:24:18;;;;;;;21.87;15.50;;;;;;;44.88;31.17;100645.69;6158418;23;20388;-89
2023/01/28 15:26:46;;;;;;;21.13;16.63;;;;;;;45.19;30.76;100639.31;6158477;23;20391;-89
2023/01/28 15:29:36;;;;;;;19.83;14.30;;;;;;;45.34;30.57;100638.41;6158949;23;20423;-91
2023/01/28 15:32:04;;;;;;;19.20;12.97;;;;;;;45.47;29.81;100637.09;6157560;23;20372;-88
2023/01/28 15:34:31;;;;;;;17.00;14.20;;;;;;;45.68;30.34;100633.16;6184795;23;20419;-89
2023/01/28 15:37:11;;;;;;;16.17;13.80;;;;;;;45.80;30.11;100635.72;6156613;23;20395;-88
2023/01/28 15:39:48;;;;;;;;;;;;;;;;;;;;;
2023/01/28 15:42:57;;;;;;;22.47;16.63;;;;;;;45.91;29.87;100642.16;6193994;23;20403;-88
2023/01/28 15:46:20;;;;;;;;;;;;;;;;;;;;;
2023/01/28 15:49:03;;;;;;;22.90;15.97;;;;;;;46.16;29.79;100647.25;6041256;23;21012;-92
2023/01/28 15:51:30;;;;;;;26.03;15.93;;;;;;;46.26;29.14;100649.38;6158634;23;20443;-88
2023/01/28 15:54:10;;;;;;;14.37;13.10;;;;;;;46.33;28.54;100642.03;6157754;23;20435;-89
2023/01/28 15:56:36;;;;;;;16.07;12.07;;;;;;;46.61;27.98;100646.34;6157108;23;20412;-89
2023/01/28 15:59:34;;;;;;;18.77;13.50;;;;;;;46.98;27.80;100653.88;6158804;23;20411;-88
2023/01/28 16:02:51;;;;;;;;;;;;;;;;;;;;;
2023/01/28 16:05:58;;;;;;;;;;;;;;;;;;;;;
2023/01/28 16:08:46;;;;;;;19.50;15.03;;;;;;;49.32;24.81;100642.16;6154206;23;20444;-92
2023/01/28 16:11:45;;;;;;;16.83;13.50;;;;;;;48.48;25.50;100639.50;6132677;23;20399;-89
2023/01/28 16:14:24;;;;;;;16.30;11.73;;;;;;;47.61;26.58;100631.81;6158465;23;20399;-89
2023/01/28 16:16:51;;;;;;;20.77;15.90;;;;;;;47.10;27.45;100629.72;6151936;23;20541;-94
2023/01/28 16:19:44;;;;;;;18.40;13.37;;;;;;;46.69;28.08;100628.03;6152322;23;20500;-89
2023/01/28 16:22:55;;;;;;;18.17;14.50;;;;;;;46.27;28.48;100612.53;6153199;23;20388;-88
2023/01/28 16:25:41;;;;;;;22.10;16.07;;;;;;;46.02;29.05;100610.22;6144468;23;20472;-91
2023/01/28 16:28:57;;;;;;;;;;;;;;;;;;;;;
2023/01/28 16:31:27;;;;;;;17.97;13.90;;;;;;;45.94;29.26;100618.72;6150476;23;20492;-93
2023/01/28 16:33:53;;;;;;;19.10;13.80;;;;;;;46.01;29.43;100613.34;6127183;23;20792;-88
2023/01/28 16:36:19;;;;;;;24.47;15.20;;;;;;;46.10;29.12;100611.09;6128172;23;20397;-88
2023/01/28 16:38:45;;;;;;;17.07;12.30;;;;;;;46.17;29.21;100613.22;6127402;23;20436;-89
2023/01/28 16:41:30;;;;;;;19.07;13.07;;;;;;;46.16;29.54;100614.34;6128791;23;20380;-91
2023/01/28 16:44:09;;;;;;;16.43;13.07;;;;;;;46.16;28.79;100617.09;6148013;23;20861;-89
2023/01/28 16:46:35;;;;;;;22.87;13.57;;;;;;;46.05;29.45;100609.50;6154023;23;20392;-89
2023/01/28 16:49:01;;;;;;;18.37;13.97;;;;;;;46.00;29.57;100618.03;6129715;23;20463;-88
2023/01/28 16:52:03;;;;;;;22.07;15.30;;;;;;;45.89;29.28;100619.81;6130790;23;20385;-90
2023/01/28 16:54:30;;;;;;;20.33;13.47;;;;;;;45.92;29.69;100621.81;6064824;23;20771;-89
2023/01/28 16:57:02;;;;;;;20.87;14.73;;;;;;;45.90;29.40;100626.88;6044625;23;20515;-90
2023/01/28 16:59:28;;;;;;;22.37;14.20;;;;;;;45.76;29.89;100641.16;6041035;23;20474;-89
2023/01/28 17:01:54;;;;;;;19.03;13.40;;;;;;;45.57;29.92;100643.13;6082778;23;20881;-89
2023/01/28 17:04:20;;;;;;;20.27;14.60;;;;;;;45.70;30.03;100647.28;6129144;23;20449;-88
2023/01/28 17:06:46;;;;;;;17.73;13.40;;;;;;;45.90;29.81;100646.06;6154644;23;20480;-89
2023/01/28 17:09:13;;;;;;;31.47;17.40;;;;;;;45.87;29.94;100649.53;6153721;23;20785;-88
2023/01/28 17:14:26;;;;;;;17.00;15.80;;;;;;;44.72;31.33;100654.75;6156428;23;20392;-87
2023/01/28 17:23:23;;;;;;;18.10;13.63;;;;;;;43.83;32.98;100663.59;6167662;23;20364;-87
2023/01/28 17:25:50;;;;;;;19.47;16.57;;;;;;;43.67;32.75;100663.56;6142723;23;20401;-87
2023/01/28 17:35:17;;;;;;;21.67;17.00;;;;;;;43.57;33.08;100699.56;6160563;23;20437;-91
2023/01/28 17:37:43;;;;;;;22.70;16.43;;;;;;;43.39;33.11;100701.81;6133461;23;20433;-90
2023/01/28 17:40:16;;;;;;;24.10;19.40;;;;;;;43.33;33.73;100705.13;6163990;23;20393;-88
2023/01/28 17:42:42;;;;;;;19.70;16.50;;;;;;;43.31;33.56;100705.47;6133928;23;20773;-88
2023/01/28 17:45:09;;;;;;;22.60;16.60;;;;;;;43.21;33.88;100705.16;6157579;23;20385;-89
2023/01/28 17:48:01;;;;;;;31.67;18.13;;;;;;;43.13;33.88;100712.34;6140938;23;20412;-88
2023/01/28 17:51:06;;;;;;;23.27;15.13;;;;;;;43.12;34.01;100716.22;6154170;23;20438;-87
2023/01/28 17:54:48;;;;;;;25.37;16.00;;;;;;;43.04;33.66;100700.81;6169433;23;20357;-86
2023/01/28 18:03:51;;;;;;;24.17;15.67;;;;;;;43.04;34.60;100719.91;6217890;23;20467;-91
2023/01/28 18:06:17;;;;;;;23.60;16.57;;;;;;;43.00;34.54;100725.25;6197536;23;20406;-89
2023/01/28 18:08:47;;;;;;;18.77;15.00;;;;;;;42.87;34.91;100724.47;6194599;23;20434;-87
2023/01/28 18:11:27;;;;;;;28.40;16.50;;;;;;;42.89;34.31;100733.09;6186638;23;20392;-86
2023/01/28 18:13:55;;;;;;;20.50;15.70;;;;;;;42.92;34.58;100742.53;6203703;23;20431;-90
2023/01/28 18:17:02;;;;;;;25.00;18.30;;;;;;;42.88;34.95;100747.06;6224493;23;20381;-87
2023/01/28 18:54:30;;;;;;;;;;;;;;;;;;;;;
2023/01/28 19:00:27;;;;;;;31.07;17.33;;;;;;;42.74;35.25;100836.69;5785439;24;20861;-87
2023/01/28 19:02:52;;;;;;;23.77;17.37;;;;;;;42.75;35.38;100844.50;5964081;24;20481;-86
2023/01/28 19:05:18;;;;;;;22.83;18.53;;;;;;;42.73;35.43;100856.91;6007343;23;20400;-87
2023/01/28 19:07:44;;;;;;;32.43;18.63;;;;;;;42.71;35.58;100864.63;6092952;23;20161;-89
2023/01/28 19:10:10;;;;;;;27.53;20.20;;;;;;;42.70;35.41;100866.56;6099491;23;20209;-87
2023/01/28 19:12:36;;;;;;;23.57;17.70;;;;;;;42.64;34.95;100876.88;6123645;23;20499;-88
2023/01/28 19:24:58;;;;;;;24.70;18.30;;;;;;;42.54;35.54;100892.84;6168452;23;20416;-95
2023/01/28 19:27:25;;;;;;;22.20;15.80;;;;;;;42.49;35.78;100887.66;6131775;23;20397;-95
2023/01/28 19:29:51;;;;;;;27.70;17.13;;;;;;;42.48;35.92;100899.66;6132231;23;20405;-95
2023/01/28 19:32:59;;;;;;;;;;;;;;;;;;;;;
2023/01/28 19:39:19;;;;;;;25.10;17.07;;;;;;;42.45;35.64;100905.81;6080493;23;20455;-91
2023/01/28 19:42:17;;;;;;;26.53;18.50;;;;;;;42.43;35.46;100900.69;6036188;23;20400;-92
2023/01/28 19:44:43;;;;;;;22.80;15.97;;;;;;;42.49;35.38;100901.28;6072004;23;20394;-93
2023/01/28 19:51:08;;;;;;;24.30;18.27;;;;;;;42.52;35.44;100916.94;6083286;23;20371;-91
2023/01/28 19:53:38;;;;;;;21.90;16.03;;;;;;;42.33;35.21;100907.34;6040931;23;20407;-92
2023/01/28 19:56:10;;;;;;;21.37;16.37;;;;;;;42.30;35.50;100910.78;6085350;23;20393;-93
2023/01/28 20:22:37;;;;;;;;;;;;;;;;;;;;;
2023/01/28 20:25:07;;;;;;;19.73;17.30;;;;;;;42.29;34.35;100938.34;6142194;23;20413;-91
2023/01/28 20:27:33;;;;;;;19.93;16.03;;;;;;;42.32;33.96;100938.47;6130279;23;20844;-92
2023/01/28 20:30:02;;;;;;;23.87;15.37;;;;;;;42.31;34.18;100936.91;6130216;23;20416;-93
2023/01/28 20:32:32;;;;;;;21.20;15.57;;;;;;;42.33;33.94;100945.53;6134975;23;20451;-93
2023/01/28 20:34:58;;;;;;;23.67;16.27;;;;;;;42.39;33.99;100951.56;6129834;23;20393;-92
2023/01/28 20:37:28;;;;;;;31.10;17.27;;;;;;;42.39;33.97;100946.91;6154691;23;20381;-92
2023/01/28 20:39:58;;;;;;;17.50;13.87;;;;;;;42.42;34.07;100955.53;6155505;23;20372;-92
2023/01/28 20:42:58;;;;;;;;;;;;;;;;;;;;;
2023/01/28 20:45:43;;;;;;;24.30;14.67;;;;;;;42.42;33.89;100958.28;6160038;23;20761;-91
2023/01/28 20:48:13;;;;;;;21.03;15.37;;;;;;;42.43;34.36;100955.22;6129943;23;20381;-92
2023/01/28 20:50:40;;;;;;;18.47;14.30;;;;;;;42.44;34.72;100961.47;6129949;23;20385;-92
2023/01/28 20:53:11;;;;;;;18.10;13.67;;;;;;;42.43;34.68;100963.41;6129984;23;20467;-91
2023/01/28 20:55:57;;;;;;;21.10;14.37;;;;;;;42.47;34.60;100974.44;6131205;23;20399;-92
2023/01/28 20:58:25;;;;;;;17.40;13.60;;;;;;;42.42;34.76;100975.44;6130035;23;20416;-91
2023/01/28 21:00:52;;;;;;;15.33;12.87;;;;;;;42.38;35.01;100969.88;6133154;23;20484;-93
2023/01/28 21:03:21;;;;;;;15.70;11.27;;;;;;;42.40;35.14;100977.69;6130580;23;20893;-92
2023/01/28 21:05:50;;;;;;;16.53;10.70;;;;;;;42.43;35.23;100982.50;6130748;23;20377;-93
2023/01/28 21:08:16;;;;;;;18.67;14.47;;;;;;;42.45;34.96;100985.69;6130409;23;20455;-94
2023/01/28 21:10:49;;;;;;;18.17;13.07;;;;;;;42.43;35.74;100990.69;6130614;23;20385;-96
2023/01/28 21:13:32;;;;;;;21.50;14.53;;;;;;;42.43;35.75;100987.16;6158654;23;20671;-91
2023/01/28 21:23:23;;;;;;;17.93;12.73;;;;;;;42.44;35.74;101011.34;6177520;22;20451;-96
2023/01/28 21:25:55;;;;;;;18.00;13.87;;;;;;;42.46;35.58;101003.63;6137572;23;20393;-92
2023/01/28 21:28:25;;;;;;;19.07;13.40;;;;;;;42.47;35.45;101001.69;6130382;23;20405;-92
2023/01/28 21:31:12;;;;;;;;;;;;;;;;;;;;;
2023/01/28 21:34:23;;;;;;;22.73;13.13;;;;;;;42.33;35.68;101004.72;6156448;23;20440;-93
2023/01/28 21:37:25;;;;;;;;;;;;;;;;;;;;;
2023/01/28 21:40:11;;;;;;;16.47;11.47;;;;;;;42.33;36.06;101001.97;6159859;23;20437;-93
2023/01/28 21:43:54;;;;;;;;;;;;;;;;;;;;;
2023/01/28 21:46:32;;;;;;;17.63;12.00;;;;;;;42.37;35.88;101006.44;6080140;23;20783;-93
2023/01/28 21:49:02;;;;;;;16.90;11.60;;;;;;;42.32;35.93;101017.53;6109031;23;20390;-93
2023/01/28 21:51:35;;;;;;;19.83;14.00;;;;;;;42.13;36.46;101019.91;6140684;23;20385;-93
2023/01/28 21:54:10;;;;;;;18.30;13.77;;;;;;;42.12;36.09;101012.88;6143314;23;20444;-93
2023/01/28 21:57:13;;;;;;;17.77;12.23;;;;;;;42.20;36.15;101014.75;6145739;23;20409;-96
2023/01/28 21:59:42;;;;;;;12.43;10.40;;;;;;;42.31;36.07;101009.72;6127067;23;20385;-92
2023/01/28 22:05:10;;;;;;;23.37;13.27;;;;;;;42.18;36.04;100997.16;6170583;23;20356;-91
2023/01/28 22:07:46;;;;;;;20.83;12.53;;;;;;;42.18;36.47;101000.69;6142550;23;20392;-91
2023/01/28 22:10:40;;;;;;;24.30;14.43;;;;;;;42.10;36.41;100996.84;6118182;23;20728;-91
2023/01/28 22:20:21;;;;;;;15.77;11.77;;;;;;;42.18;36.43;100988.97;6151852;23;20385;-91